sensor_id;sensor_type;location;lat;lon;timestamp;pressure;altitude;pressure_sealevel;temperature;humidity
550;BME280;20066;48.764;9.176;2023-03-20T00:00:49;98414.44;;;12.77;70.61
550;BME280;20066;48.764;9.176;2023-03-20T00:03:17;98413.38;;;12.57;70.57
550;BME280;20066;48.764;9.176;2023-03-20T00:05:45;98408.56;;;13.03;68.21
550;BME280;20066;48.764;9.176;2023-03-20T00:08:13;98414.66;;;13.18;68.85
550;BME280;20066;48.764;9.176;2023-03-20T00:10:44;98418.56;;;13.10;69.08
550;BME280;20066;48.764;9.176;2023-03-20T00:13:14;98421.56;;;13.23;68.08
550;BME280;20066;48.764;9.176;2023-03-20T00:15:44;98413.47;;;13.26;67.39
550;BME280;20066;48.764;9.176;2023-03-20T00:18:14;98420.41;;;13.24;67.73
550;BME280;20066;48.764;9.176;2023-03-20T00:20:44;98417.78;;;13.09;67.50
550;BME280;20066;48.764;9.176;2023-03-20T00:23:27;98423.44;;;12.38;70.47
550;BME280;20066;48.764;9.176;2023-03-20T00:25:56;98418.88;;;12.00;71.92
550;BME280;20066;48.764;9.176;2023-03-20T00:28:37;98420.97;;;12.87;68.13
550;BME280;20066;48.764;9.176;2023-03-20T00:31:14;98424.28;;;11.65;71.43
550;BME280;20066;48.764;9.176;2023-03-20T00:33:44;98429.25;;;12.19;70.36
550;BME280;20066;48.764;9.176;2023-03-20T00:36:12;98422.94;;;12.68;67.11
550;BME280;20066;48.764;9.176;2023-03-20T00:38:40;98427.25;;;12.55;67.97
550;BME280;20066;48.764;9.176;2023-03-20T00:41:19;98421.19;;;13.24;65.90
550;BME280;20066;48.764;9.176;2023-03-20T00:43:50;98422.34;;;13.27;65.71
550;BME280;20066;48.764;9.176;2023-03-20T00:46:18;98432.03;;;13.17;67.17
550;BME280;20066;48.764;9.176;2023-03-20T00:48:46;98424.78;;;13.00;67.71
550;BME280;20066;48.764;9.176;2023-03-20T00:51:15;98426.41;;;12.76;66.76
550;BME280;20066;48.764;9.176;2023-03-20T00:53:42;98430.78;;;13.36;65.63
550;BME280;20066;48.764;9.176;2023-03-20T00:56:29;98424.88;;;13.51;66.12
550;BME280;20066;48.764;9.176;2023-03-20T00:58:58;98423.44;;;13.36;65.05
550;BME280;20066;48.764;9.176;2023-03-20T01:01:26;98430.78;;;13.36;65.12
550;BME280;20066;48.764;9.176;2023-03-20T01:03:54;98423.09;;;11.62;68.54
550;BME280;20066;48.764;9.176;2023-03-20T01:06:22;98422.66;;;11.32;71.51
550;BME280;20066;48.764;9.176;2023-03-20T01:08:50;98424.59;;;11.38;71.28
550;BME280;20066;48.764;9.176;2023-03-20T01:11:21;98420.03;;;11.99;69.73
550;BME280;20066;48.764;9.176;2023-03-20T01:13:49;98427.59;;;12.61;67.88
550;BME280;20066;48.764;9.176;2023-03-20T01:16:20;98425.94;;;13.02;67.11
550;BME280;20066;48.764;9.176;2023-03-20T01:18:49;98429.28;;;13.28;66.62
550;BME280;20066;48.764;9.176;2023-03-20T01:21:18;98437.72;;;13.33;65.79
550;BME280;20066;48.764;9.176;2023-03-20T01:23:47;98433.00;;;13.44;64.90
550;BME280;20066;48.764;9.176;2023-03-20T01:26:29;98423.75;;;12.65;69.85
550;BME280;20066;48.764;9.176;2023-03-20T01:28:58;98431.47;;;12.63;68.08
550;BME280;20066;48.764;9.176;2023-03-20T01:31:26;98437.28;;;12.58;67.88
550;BME280;20066;48.764;9.176;2023-03-20T01:33:54;98426.13;;;12.49;68.26
550;BME280;20066;48.764;9.176;2023-03-20T01:36:22;98437.19;;;12.80;67.98
550;BME280;20066;48.764;9.176;2023-03-20T01:38:53;98437.50;;;13.03;67.32
550;BME280;20066;48.764;9.176;2023-03-20T01:41:24;98429.44;;;12.92;65.14
550;BME280;20066;48.764;9.176;2023-03-20T01:43:52;98437.66;;;12.53;68.12
550;BME280;20066;48.764;9.176;2023-03-20T01:46:23;98429.19;;;12.48;70.33
550;BME280;20066;48.764;9.176;2023-03-20T01:49:08;98432.69;;;12.41;71.66
550;BME280;20066;48.764;9.176;2023-03-20T01:51:55;98432.63;;;12.62;66.69
550;BME280;20066;48.764;9.176;2023-03-20T01:54:26;98428.06;;;12.38;66.55
550;BME280;20066;48.764;9.176;2023-03-20T01:56:59;98435.00;;;12.43;66.95
550;BME280;20066;48.764;9.176;2023-03-20T01:59:32;98437.94;;;12.98;66.83
550;BME280;20066;48.764;9.176;2023-03-20T02:02:02;98443.41;;;12.62;69.11
550;BME280;20066;48.764;9.176;2023-03-20T02:04:33;98447.34;;;12.33;69.99
550;BME280;20066;48.764;9.176;2023-03-20T02:07:04;98455.72;;;12.70;67.77
550;BME280;20066;48.764;9.176;2023-03-20T02:09:32;98460.44;;;12.31;69.46
550;BME280;20066;48.764;9.176;2023-03-20T02:12:02;98452.63;;;12.75;67.30
550;BME280;20066;48.764;9.176;2023-03-20T02:14:31;98465.19;;;13.21;64.92
550;BME280;20066;48.764;9.176;2023-03-20T02:16:59;98463.47;;;12.65;65.51
550;BME280;20066;48.764;9.176;2023-03-20T02:19:30;98462.75;;;12.43;66.87
550;BME280;20066;48.764;9.176;2023-03-20T02:22:30;98464.25;;;11.55;70.79
550;BME280;20066;48.764;9.176;2023-03-20T02:25:39;98472.69;;;11.33;72.18
550;BME280;20066;48.764;9.176;2023-03-20T02:31:31;98463.94;;;10.63;76.06
550;BME280;20066;48.764;9.176;2023-03-20T02:34:36;98462.41;;;10.66;76.39
550;BME280;20066;48.764;9.176;2023-03-20T02:37:52;98455.31;;;11.09;73.41
550;BME280;20066;48.764;9.176;2023-03-20T02:40:31;98461.22;;;10.60;73.10
550;BME280;20066;48.764;9.176;2023-03-20T02:43:05;98466.19;;;11.55;70.27
550;BME280;20066;48.764;9.176;2023-03-20T02:45:42;98466.72;;;10.81;70.81
550;BME280;20066;48.764;9.176;2023-03-20T02:48:22;98460.47;;;11.78;68.63
550;BME280;20066;48.764;9.176;2023-03-20T02:50:57;98461.47;;;11.20;69.05
550;BME280;20066;48.764;9.176;2023-03-20T02:53:36;98458.38;;;11.14;68.67
550;BME280;20066;48.764;9.176;2023-03-20T02:56:11;98463.75;;;11.07;69.55
550;BME280;20066;48.764;9.176;2023-03-20T02:58:48;98458.09;;;11.41;67.22
550;BME280;20066;48.764;9.176;2023-03-20T03:01:22;98451.59;;;12.27;63.55
550;BME280;20066;48.764;9.176;2023-03-20T03:03:55;98458.94;;;12.09;63.25
550;BME280;20066;48.764;9.176;2023-03-20T03:06:26;98461.16;;;12.60;62.89
550;BME280;20066;48.764;9.176;2023-03-20T03:08:58;98465.06;;;12.37;63.00
550;BME280;20066;48.764;9.176;2023-03-20T03:11:29;98468.78;;;12.93;62.09
550;BME280;20066;48.764;9.176;2023-03-20T03:14:03;98469.22;;;12.70;63.32
550;BME280;20066;48.764;9.176;2023-03-20T03:16:36;98467.63;;;12.84;64.56
550;BME280;20066;48.764;9.176;2023-03-20T03:19:07;98475.25;;;13.21;62.73
550;BME280;20066;48.764;9.176;2023-03-20T03:21:36;98472.22;;;13.04;64.19
550;BME280;20066;48.764;9.176;2023-03-20T03:24:20;98473.97;;;13.43;62.76
550;BME280;20066;48.764;9.176;2023-03-20T03:27:10;98478.94;;;13.48;62.06
550;BME280;20066;48.764;9.176;2023-03-20T03:29:40;98471.50;;;12.93;64.70
550;BME280;20066;48.764;9.176;2023-03-20T03:32:30;98477.59;;;13.08;63.53
550;BME280;20066;48.764;9.176;2023-03-20T03:34:59;98482.63;;;13.09;63.32
550;BME280;20066;48.764;9.176;2023-03-20T03:37:39;98484.50;;;13.16;64.62
550;BME280;20066;48.764;9.176;2023-03-20T03:40:17;98489.06;;;13.33;63.38
550;BME280;20066;48.764;9.176;2023-03-20T03:42:51;98498.75;;;13.27;62.78
550;BME280;20066;48.764;9.176;2023-03-20T03:45:23;98487.94;;;13.24;63.09
550;BME280;20066;48.764;9.176;2023-03-20T03:47:58;98494.09;;;13.35;62.73
550;BME280;20066;48.764;9.176;2023-03-20T03:50:30;98491.50;;;12.99;62.80
550;BME280;20066;48.764;9.176;2023-03-20T03:53:03;98495.28;;;13.23;62.45
550;BME280;20066;48.764;9.176;2023-03-20T03:55:37;98499.63;;;11.40;67.79
550;BME280;20066;48.764;9.176;2023-03-20T03:58:09;98497.94;;;11.00;69.40
550;BME280;20066;48.764;9.176;2023-03-20T04:00:40;98496.06;;;11.07;70.01
550;BME280;20066;48.764;9.176;2023-03-20T04:03:09;98500.22;;;10.98;69.60
550;BME280;20066;48.764;9.176;2023-03-20T04:05:53;98495.22;;;10.93;69.23
550;BME280;20066;48.764;9.176;2023-03-20T04:08:23;98492.34;;;11.54;67.42
550;BME280;20066;48.764;9.176;2023-03-20T04:10:52;98504.75;;;12.23;65.56
550;BME280;20066;48.764;9.176;2023-03-20T04:13:20;98504.75;;;12.33;65.52
550;BME280;20066;48.764;9.176;2023-03-20T04:15:48;98509.34;;;12.65;63.64
550;BME280;20066;48.764;9.176;2023-03-20T04:18:17;98499.34;;;12.51;65.11
550;BME280;20066;48.764;9.176;2023-03-20T04:20:46;98499.31;;;12.65;64.91
550;BME280;20066;48.764;9.176;2023-03-20T04:23:14;98502.00;;;12.72;64.07
550;BME280;20066;48.764;9.176;2023-03-20T04:25:41;98501.19;;;12.83;64.44
550;BME280;20066;48.764;9.176;2023-03-20T04:28:10;98507.06;;;12.17;64.06
550;BME280;20066;48.764;9.176;2023-03-20T04:30:41;98491.22;;;11.63;64.64
550;BME280;20066;48.764;9.176;2023-03-20T04:33:13;98494.19;;;11.29;67.22
550;BME280;20066;48.764;9.176;2023-03-20T04:35:41;98492.69;;;11.35;65.92
550;BME280;20066;48.764;9.176;2023-03-20T04:38:09;98487.81;;;12.15;64.66
550;BME280;20066;48.764;9.176;2023-03-20T04:40:37;98488.50;;;11.52;65.53
550;BME280;20066;48.764;9.176;2023-03-20T04:43:05;98483.09;;;11.41;66.70
550;BME280;20066;48.764;9.176;2023-03-20T04:45:34;98484.06;;;10.87;nan
550;BME280;20066;48.764;9.176;2023-03-20T04:48:03;98489.81;;;10.86;67.95
550;BME280;20066;48.764;9.176;2023-03-20T04:50:31;98489.34;;;10.69;69.47
550;BME280;20066;48.764;9.176;2023-03-20T04:52:59;98492.72;;;11.42;67.38
550;BME280;20066;48.764;9.176;2023-03-20T04:55:27;98489.66;;;11.61;66.40
550;BME280;20066;48.764;9.176;2023-03-20T04:57:54;98497.06;;;12.07;63.84
550;BME280;20066;48.764;9.176;2023-03-20T05:00:22;98495.88;;;12.29;63.65
550;BME280;20066;48.764;9.176;2023-03-20T05:02:52;98505.09;;;12.60;63.73
550;BME280;20066;48.764;9.176;2023-03-20T05:05:19;98500.50;;;12.57;62.61
550;BME280;20066;48.764;9.176;2023-03-20T05:07:49;98513.59;;;12.59;63.90
550;BME280;20066;48.764;9.176;2023-03-20T05:10:17;98515.88;;;12.89;63.25
550;BME280;20066;48.764;9.176;2023-03-20T05:12:46;98516.97;;;12.98;62.99
550;BME280;20066;48.764;9.176;2023-03-20T05:15:14;98521.28;;;12.71;62.72
550;BME280;20066;48.764;9.176;2023-03-20T05:17:41;98516.22;;;12.91;63.01
550;BME280;20066;48.764;9.176;2023-03-20T05:20:11;98528.84;;;11.38;68.18
550;BME280;20066;48.764;9.176;2023-03-20T05:22:39;98533.88;;;11.39;67.24
550;BME280;20066;48.764;9.176;2023-03-20T05:25:07;98533.78;;;11.18;67.85
550;BME280;20066;48.764;9.176;2023-03-20T05:27:35;98532.31;;;11.31;68.75
550;BME280;20066;48.764;9.176;2023-03-20T05:30:03;98534.22;;;11.31;68.50
550;BME280;20066;48.764;9.176;2023-03-20T05:32:31;98528.63;;;11.92;66.42
550;BME280;20066;48.764;9.176;2023-03-20T05:35:01;98533.50;;;11.51;67.42
550;BME280;20066;48.764;9.176;2023-03-20T05:37:31;98514.75;;;11.97;65.96
550;BME280;20066;48.764;9.176;2023-03-20T05:39:59;98525.34;;;11.23;67.48
550;BME280;20066;48.764;9.176;2023-03-20T05:42:26;98522.00;;;11.58;67.38
550;BME280;20066;48.764;9.176;2023-03-20T05:44:54;98518.22;;;11.77;64.92
550;BME280;20066;48.764;9.176;2023-03-20T05:47:22;98525.91;;;11.64;65.27
550;BME280;20066;48.764;9.176;2023-03-20T05:49:51;98524.03;;;11.89;65.20
550;BME280;20066;48.764;9.176;2023-03-20T05:52:19;98529.03;;;12.23;63.91
550;BME280;20066;48.764;9.176;2023-03-20T05:54:48;98529.81;;;12.41;62.66
550;BME280;20066;48.764;9.176;2023-03-20T05:57:16;98531.28;;;12.67;63.01
550;BME280;20066;48.764;9.176;2023-03-20T05:59:44;98528.28;;;12.44;61.81
550;BME280;20066;48.764;9.176;2023-03-20T06:02:12;98538.22;;;12.86;62.35
550;BME280;20066;48.764;9.176;2023-03-20T06:04:40;98547.44;;;12.99;63.14
550;BME280;20066;48.764;9.176;2023-03-20T06:07:08;98560.97;;;12.95;63.62
550;BME280;20066;48.764;9.176;2023-03-20T06:09:35;98548.94;;;13.18;63.57
550;BME280;20066;48.764;9.176;2023-03-20T06:12:05;98552.84;;;13.13;63.86
550;BME280;20066;48.764;9.176;2023-03-20T06:14:33;98549.34;;;13.09;64.16
550;BME280;20066;48.764;9.176;2023-03-20T06:17:01;98556.59;;;13.30;63.07
550;BME280;20066;48.764;9.176;2023-03-20T06:19:29;98554.66;;;13.37;63.25
550;BME280;20066;48.764;9.176;2023-03-20T06:21:56;98551.50;;;13.53;61.83
550;BME280;20066;48.764;9.176;2023-03-20T06:24:24;98559.63;;;13.49;62.39
550;BME280;20066;48.764;9.176;2023-03-20T06:26:52;98558.50;;;13.40;61.81
550;BME280;20066;48.764;9.176;2023-03-20T06:29:21;98556.19;;;13.42;61.54
550;BME280;20066;48.764;9.176;2023-03-20T06:31:49;98553.44;;;13.45;62.76
550;BME280;20066;48.764;9.176;2023-03-20T06:34:17;98548.25;;;12.78;65.74
550;BME280;20066;48.764;9.176;2023-03-20T06:36:45;98552.88;;;12.95;64.60
550;BME280;20066;48.764;9.176;2023-03-20T06:39:14;98552.09;;;13.02;65.38
550;BME280;20066;48.764;9.176;2023-03-20T06:41:42;98545.53;;;12.96;64.34
550;BME280;20066;48.764;9.176;2023-03-20T06:44:10;98543.34;;;13.60;61.59
550;BME280;20066;48.764;9.176;2023-03-20T06:46:39;98539.44;;;12.24;66.33
550;BME280;20066;48.764;9.176;2023-03-20T06:49:07;98546.56;;;13.30;61.93
550;BME280;20066;48.764;9.176;2023-03-20T06:51:35;98548.16;;;13.13;64.49
550;BME280;20066;48.764;9.176;2023-03-20T06:54:03;98545.78;;;13.37;63.33
550;BME280;20066;48.764;9.176;2023-03-20T06:56:31;98542.22;;;13.58;62.46
550;BME280;20066;48.764;9.176;2023-03-20T06:58:59;98536.38;;;13.66;62.92
550;BME280;20066;48.764;9.176;2023-03-20T07:01:27;98545.91;;;13.85;61.68
550;BME280;20066;48.764;9.176;2023-03-20T07:03:56;98551.66;;;13.94;61.52
550;BME280;20066;48.764;9.176;2023-03-20T07:06:24;98553.94;;;14.06;61.01
550;BME280;20066;48.764;9.176;2023-03-20T07:08:52;98556.28;;;13.97;60.71
550;BME280;20066;48.764;9.176;2023-03-20T07:11:21;98563.88;;;14.64;58.75
550;BME280;20066;48.764;9.176;2023-03-20T07:13:49;98561.31;;;14.47;58.68
550;BME280;20066;48.764;9.176;2023-03-20T07:16:17;98564.25;;;13.49;58.76
550;BME280;20066;48.764;9.176;2023-03-20T07:18:45;98567.31;;;13.55;58.95
550;BME280;20066;48.764;9.176;2023-03-20T07:21:17;98566.00;;;12.97;60.49
550;BME280;20066;48.764;9.176;2023-03-20T07:23:46;98578.47;;;13.67;60.32
550;BME280;20066;48.764;9.176;2023-03-20T07:26:15;98580.84;;;13.51;59.25
550;BME280;20066;48.764;9.176;2023-03-20T07:28:43;98591.78;;;13.19;59.84
550;BME280;20066;48.764;9.176;2023-03-20T07:31:18;98588.25;;;14.16;57.33
550;BME280;20066;48.764;9.176;2023-03-20T07:33:49;98588.88;;;13.72;58.56
550;BME280;20066;48.764;9.176;2023-03-20T07:36:18;98589.88;;;14.03;57.73
550;BME280;20066;48.764;9.176;2023-03-20T07:38:46;98579.34;;;14.16;56.91
550;BME280;20066;48.764;9.176;2023-03-20T07:41:14;98579.66;;;14.28;56.48
550;BME280;20066;48.764;9.176;2023-03-20T07:43:42;98583.25;;;13.28;59.15
550;BME280;20066;48.764;9.176;2023-03-20T07:46:10;98583.53;;;13.55;58.45
550;BME280;20066;48.764;9.176;2023-03-20T07:48:38;98588.69;;;14.01;58.02
550;BME280;20066;48.764;9.176;2023-03-20T07:51:07;98580.72;;;13.83;57.33
550;BME280;20066;48.764;9.176;2023-03-20T07:53:49;98579.41;;;14.02;57.18
550;BME280;20066;48.764;9.176;2023-03-20T07:56:22;98576.31;;;13.23;59.04
550;BME280;20066;48.764;9.176;2023-03-20T07:58:50;98579.06;;;14.03;57.01
550;BME280;20066;48.764;9.176;2023-03-20T08:01:18;98578.84;;;14.35;56.33
550;BME280;20066;48.764;9.176;2023-03-20T08:03:46;98575.16;;;13.28;58.48
550;BME280;20066;48.764;9.176;2023-03-20T08:06:14;98578.91;;;14.24;56.81
550;BME280;20066;48.764;9.176;2023-03-20T08:08:44;98584.00;;;14.67;56.65
550;BME280;20066;48.764;9.176;2023-03-20T08:11:11;98589.66;;;14.83;56.28
550;BME280;20066;48.764;9.176;2023-03-20T08:13:39;98579.88;;;14.48;55.99
550;BME280;20066;48.764;9.176;2023-03-20T08:16:08;98581.28;;;14.15;55.96
550;BME280;20066;48.764;9.176;2023-03-20T08:18:36;98578.31;;;13.92;57.82
550;BME280;20066;48.764;9.176;2023-03-20T08:21:04;98577.88;;;14.01;56.78
550;BME280;20066;48.764;9.176;2023-03-20T08:23:32;98582.31;;;14.32;57.04
550;BME280;20066;48.764;9.176;2023-03-20T08:26:02;98585.56;;;14.13;56.64
550;BME280;20066;48.764;9.176;2023-03-20T08:28:30;98587.44;;;13.46;58.11
550;BME280;20066;48.764;9.176;2023-03-20T08:31:13;98588.34;;;13.04;60.63
550;BME280;20066;48.764;9.176;2023-03-20T08:33:42;98596.78;;;13.28;59.39
550;BME280;20066;48.764;9.176;2023-03-20T08:36:10;98581.94;;;14.34;56.70
550;BME280;20066;48.764;9.176;2023-03-20T08:38:40;98585.97;;;14.11;56.52
550;BME280;20066;48.764;9.176;2023-03-20T08:41:10;98587.59;;;14.50;55.23
550;BME280;20066;48.764;9.176;2023-03-20T08:43:37;98582.16;;;14.94;55.30
550;BME280;20066;48.764;9.176;2023-03-20T08:46:06;98585.38;;;15.23;54.30
550;BME280;20066;48.764;9.176;2023-03-20T08:48:34;98586.28;;;14.68;54.42
550;BME280;20066;48.764;9.176;2023-03-20T08:51:03;98584.03;;;15.01;52.98
550;BME280;20066;48.764;9.176;2023-03-20T08:53:31;98587.50;;;14.60;54.01
550;BME280;20066;48.764;9.176;2023-03-20T08:55:59;98587.34;;;14.82;53.30
550;BME280;20066;48.764;9.176;2023-03-20T08:58:28;98582.50;;;14.59;53.57
550;BME280;20066;48.764;9.176;2023-03-20T09:00:56;98578.06;;;15.20;51.93
550;BME280;20066;48.764;9.176;2023-03-20T09:03:28;98582.47;;;15.71;50.31
550;BME280;20066;48.764;9.176;2023-03-20T09:05:57;98586.09;;;15.27;51.55
550;BME280;20066;48.764;9.176;2023-03-20T09:08:25;98584.34;;;16.32;50.09
550;BME280;20066;48.764;9.176;2023-03-20T09:10:53;98584.38;;;15.74;48.65
550;BME280;20066;48.764;9.176;2023-03-20T09:13:21;98587.59;;;15.93;48.63
550;BME280;20066;48.764;9.176;2023-03-20T09:15:55;98594.25;;;16.18;48.43
550;BME280;20066;48.764;9.176;2023-03-20T09:18:24;98601.72;;;16.38;47.06
550;BME280;20066;48.764;9.176;2023-03-20T09:20:52;98601.09;;;16.27;47.59
550;BME280;20066;48.764;9.176;2023-03-20T09:23:22;98600.44;;;16.46;46.96
550;BME280;20066;48.764;9.176;2023-03-20T09:25:50;98599.69;;;17.12;45.64
550;BME280;20066;48.764;9.176;2023-03-20T09:28:18;98600.81;;;17.14;46.02
550;BME280;20066;48.764;9.176;2023-03-20T09:30:46;98601.28;;;16.86;46.54
550;BME280;20066;48.764;9.176;2023-03-20T09:33:16;98589.75;;;17.02;45.63
550;BME280;20066;48.764;9.176;2023-03-20T09:35:45;98590.53;;;17.02;46.11
550;BME280;20066;48.764;9.176;2023-03-20T09:38:13;98586.06;;;17.15;45.80
550;BME280;20066;48.764;9.176;2023-03-20T09:40:49;98597.94;;;16.78;46.46
550;BME280;20066;48.764;9.176;2023-03-20T09:43:36;98602.03;;;16.16;47.52
550;BME280;20066;48.764;9.176;2023-03-20T09:46:25;98590.78;;;14.41;52.42
550;BME280;20066;48.764;9.176;2023-03-20T09:49:06;98595.34;;;13.85;53.72
550;BME280;20066;48.764;9.176;2023-03-20T09:51:42;98589.09;;;14.99;51.45
550;BME280;20066;48.764;9.176;2023-03-20T09:54:18;98598.69;;;15.45;49.88
550;BME280;20066;48.764;9.176;2023-03-20T09:56:48;98594.16;;;14.93;50.70
550;BME280;20066;48.764;9.176;2023-03-20T09:59:18;98592.81;;;14.75;51.06
550;BME280;20066;48.764;9.176;2023-03-20T10:01:49;98593.28;;;14.62;51.80
550;BME280;20066;48.764;9.176;2023-03-20T10:04:19;98599.81;;;15.47;49.54
550;BME280;20066;48.764;9.176;2023-03-20T10:06:50;98595.16;;;15.14;50.39
550;BME280;20066;48.764;9.176;2023-03-20T10:09:21;98606.75;;;15.52;49.70
550;BME280;20066;48.764;9.176;2023-03-20T10:12:06;98595.97;;;15.11;50.71
550;BME280;20066;48.764;9.176;2023-03-20T10:14:46;98593.63;;;15.47;49.03
550;BME280;20066;48.764;9.176;2023-03-20T10:17:24;98594.81;;;15.46;48.93
550;BME280;20066;48.764;9.176;2023-03-20T10:19:59;98601.84;;;15.39;48.79
550;BME280;20066;48.764;9.176;2023-03-20T10:22:32;98596.38;;;16.04;47.44
550;BME280;20066;48.764;9.176;2023-03-20T10:25:06;98604.66;;;15.93;48.50
550;BME280;20066;48.764;9.176;2023-03-20T10:27:39;98606.59;;;15.93;47.80
550;BME280;20066;48.764;9.176;2023-03-20T10:30:22;98609.31;;;15.93;47.74
550;BME280;20066;48.764;9.176;2023-03-20T10:33:00;98616.25;;;16.24;47.62
550;BME280;20066;48.764;9.176;2023-03-20T10:35:38;98608.41;;;16.03;46.26
550;BME280;20066;48.764;9.176;2023-03-20T10:38:17;98609.81;;;16.65;45.70
550;BME280;20066;48.764;9.176;2023-03-20T10:40:52;98608.91;;;15.94;47.31
550;BME280;20066;48.764;9.176;2023-03-20T10:43:27;98606.91;;;16.29;45.86
550;BME280;20066;48.764;9.176;2023-03-20T10:45:59;98600.91;;;16.10;45.89
550;BME280;20066;48.764;9.176;2023-03-20T10:48:32;98606.09;;;15.71;47.46
550;BME280;20066;48.764;9.176;2023-03-20T10:51:06;98598.19;;;15.19;48.90
550;BME280;20066;48.764;9.176;2023-03-20T10:53:42;98596.53;;;15.63;48.53
550;BME280;20066;48.764;9.176;2023-03-20T10:56:15;98593.50;;;15.23;49.42
550;BME280;20066;48.764;9.176;2023-03-20T10:58:49;98586.28;;;15.13;51.63
550;BME280;20066;48.764;9.176;2023-03-20T11:01:20;98584.69;;;14.75;52.84
550;BME280;20066;48.764;9.176;2023-03-20T11:03:48;98593.66;;;14.68;53.19
550;BME280;20066;48.764;9.176;2023-03-20T11:06:24;98580.22;;;14.95;51.66
550;BME280;20066;48.764;9.176;2023-03-20T11:08:54;98589.59;;;14.42;53.35
550;BME280;20066;48.764;9.176;2023-03-20T11:11:25;98596.75;;;14.15;54.22
550;BME280;20066;48.764;9.176;2023-03-20T11:13:54;98591.03;;;14.57;52.98
550;BME280;20066;48.764;9.176;2023-03-20T11:16:24;98586.88;;;14.90;52.26
550;BME280;20066;48.764;9.176;2023-03-20T11:18:53;98586.34;;;14.61;54.21
550;BME280;20066;48.764;9.176;2023-03-20T11:21:25;98591.84;;;14.92;52.64
550;BME280;20066;48.764;9.176;2023-03-20T11:23:54;98589.34;;;14.74;52.60
550;BME280;20066;48.764;9.176;2023-03-20T11:26:33;98592.63;;;14.92;52.88
550;BME280;20066;48.764;9.176;2023-03-20T11:29:05;98599.69;;;15.24;52.54
550;BME280;20066;48.764;9.176;2023-03-20T11:31:34;98594.22;;;14.90;53.57
550;BME280;20066;48.764;9.176;2023-03-20T11:34:22;98596.91;;;14.45;54.55
550;BME280;20066;48.764;9.176;2023-03-20T11:36:58;98593.28;;;14.66;54.67
550;BME280;20066;48.764;9.176;2023-03-20T11:39:52;98594.41;;;14.17;56.65
550;BME280;20066;48.764;9.176;2023-03-20T11:42:22;98592.78;;;14.30;56.20
550;BME280;20066;48.764;9.176;2023-03-20T11:44:57;98588.19;;;14.23;56.27
550;BME280;20066;48.764;9.176;2023-03-20T11:47:27;98592.19;;;14.56;55.06
550;BME280;20066;48.764;9.176;2023-03-20T11:49:58;98588.13;;;14.79;54.10
550;BME280;20066;48.764;9.176;2023-03-20T11:52:31;98590.59;;;15.03;52.76
550;BME280;20066;48.764;9.176;2023-03-20T11:55:02;98588.44;;;14.84;53.45
550;BME280;20066;48.764;9.176;2023-03-20T11:57:34;98589.13;;;15.33;51.99
550;BME280;20066;48.764;9.176;2023-03-20T12:00:06;98585.66;;;14.95;53.28
550;BME280;20066;48.764;9.176;2023-03-20T12:02:43;98593.22;;;15.48;50.82
550;BME280;20066;48.764;9.176;2023-03-20T12:05:27;98590.19;;;15.73;50.90
550;BME280;20066;48.764;9.176;2023-03-20T12:08:00;98592.47;;;16.32;49.13
550;BME280;20066;48.764;9.176;2023-03-20T12:10:33;98581.59;;;15.78;49.80
550;BME280;20066;48.764;9.176;2023-03-20T12:13:11;98582.34;;;16.59;48.08
550;BME280;20066;48.764;9.176;2023-03-20T12:15:43;98579.25;;;17.63;45.97
550;BME280;20066;48.764;9.176;2023-03-20T12:18:18;98574.97;;;17.03;45.73
550;BME280;20066;48.764;9.176;2023-03-20T12:21:03;98568.91;;;18.59;42.33
550;BME280;20066;48.764;9.176;2023-03-20T12:23:38;98565.25;;;17.25;45.48
550;BME280;20066;48.764;9.176;2023-03-20T12:26:11;98564.75;;;18.05;43.58
550;BME280;20066;48.764;9.176;2023-03-20T12:28:43;98554.72;;;16.64;46.89
550;BME280;20066;48.764;9.176;2023-03-20T12:31:21;98563.84;;;16.54;46.02
550;BME280;20066;48.764;9.176;2023-03-20T12:33:53;98555.31;;;16.75;46.84
550;BME280;20066;48.764;9.176;2023-03-20T12:36:28;98555.72;;;17.72;44.73
550;BME280;20066;48.764;9.176;2023-03-20T12:39:02;98557.94;;;18.14;42.53
550;BME280;20066;48.764;9.176;2023-03-20T12:41:38;98554.75;;;17.27;45.19
550;BME280;20066;48.764;9.176;2023-03-20T12:44:28;98553.44;;;18.07;43.22
550;BME280;20066;48.764;9.176;2023-03-20T12:47:27;98545.75;;;17.10;45.37
550;BME280;20066;48.764;9.176;2023-03-20T12:50:06;98551.41;;;17.75;44.03
550;BME280;20066;48.764;9.176;2023-03-20T12:52:47;98543.66;;;17.38;44.02
550;BME280;20066;48.764;9.176;2023-03-20T12:55:26;98533.56;;;17.38;44.62
550;BME280;20066;48.764;9.176;2023-03-20T12:58:04;98534.28;;;17.58;44.47
550;BME280;20066;48.764;9.176;2023-03-20T13:00:36;98536.31;;;16.52;46.03
550;BME280;20066;48.764;9.176;2023-03-20T13:03:18;98538.06;;;16.15;47.68
550;BME280;20066;48.764;9.176;2023-03-20T13:05:56;98542.81;;;17.21;44.73
550;BME280;20066;48.764;9.176;2023-03-20T13:08:50;98543.03;;;16.21;47.27
550;BME280;20066;48.764;9.176;2023-03-20T13:11:28;98539.91;;;16.22;46.96
550;BME280;20066;48.764;9.176;2023-03-20T13:14:01;98528.94;;;15.75;47.81
550;BME280;20066;48.764;9.176;2023-03-20T13:16:39;98534.47;;;16.22;46.71
550;BME280;20066;48.764;9.176;2023-03-20T13:19:20;98530.47;;;16.53;46.66
550;BME280;20066;48.764;9.176;2023-03-20T13:21:53;98529.34;;;15.74;47.64
550;BME280;20066;48.764;9.176;2023-03-20T13:24:32;98529.09;;;15.65;48.44
550;BME280;20066;48.764;9.176;2023-03-20T13:27:14;98520.78;;;16.29;46.81
550;BME280;20066;48.764;9.176;2023-03-20T13:29:50;98512.88;;;16.81;45.75
550;BME280;20066;48.764;9.176;2023-03-20T13:32:26;98512.00;;;16.22;46.38
550;BME280;20066;48.764;9.176;2023-03-20T13:35:06;98506.69;;;15.30;49.23
550;BME280;20066;48.764;9.176;2023-03-20T13:37:42;98505.47;;;16.15;46.70
550;BME280;20066;48.764;9.176;2023-03-20T13:40:15;98502.31;;;16.44;46.45
550;BME280;20066;48.764;9.176;2023-03-20T13:42:51;98506.00;;;15.80;47.40
550;BME280;20066;48.764;9.176;2023-03-20T13:45:25;98498.84;;;15.66;48.58
550;BME280;20066;48.764;9.176;2023-03-20T13:48:00;98495.63;;;16.48;46.46
550;BME280;20066;48.764;9.176;2023-03-20T13:50:41;98502.94;;;15.78;48.65
550;BME280;20066;48.764;9.176;2023-03-20T13:53:27;98493.25;;;16.31;47.47